sensor_id;sensor_type;location;lat;lon;timestamp;P1;durP1;ratioP1;P2;durP2;ratioP2
2009;SDS011;1008;47.404;8.502;2022-09-29T00:02:05;1.00;;;0.90;;
2009;SDS011;1008;47.404;8.502;2022-09-29T00:04:32;1.33;;;1.00;;
2009;SDS011;1008;47.404;8.502;2022-09-29T00:06:58;1.43;;;0.80;;
2009;SDS011;1008;47.404;8.502;2022-09-29T00:09:26;0.80;;;0.70;;
2009;SDS011;1008;47.404;8.502;2022-09-29T00:11:53;0.93;;;0.93;;
2009;SDS011;1008;47.404;8.502;2022-09-29T00:14:20;0.70;;;0.60;;
2009;SDS011;1008;47.404;8.502;2022-09-29T00:16:47;0.80;;;0.77;;
2009;SDS011;1008;47.404;8.502;2022-09-29T00:19:14;1.43;;;0.80;;
2009;SDS011;1008;47.404;8.502;2022-09-29T00:21:41;0.80;;;0.80;;
2009;SDS011;1008;47.404;8.502;2022-09-29T00:24:08;1.03;;;0.70;;
2009;SDS011;1008;47.404;8.502;2022-09-29T00:26:36;1.57;;;0.80;;
2009;SDS011;1008;47.404;8.502;2022-09-29T00:29:03;1.47;;;0.63;;
2009;SDS011;1008;47.404;8.502;2022-09-29T00:31:31;1.20;;;0.87;;
2009;SDS011;1008;47.404;8.502;2022-09-29T00:33:59;0.90;;;0.73;;
2009;SDS011;1008;47.404;8.502;2022-09-29T00:36:25;1.00;;;0.70;;
2009;SDS011;1008;47.404;8.502;2022-09-29T00:38:54;1.10;;;0.80;;
2009;SDS011;1008;47.404;8.502;2022-09-29T00:41:22;0.70;;;0.70;;
2009;SDS011;1008;47.404;8.502;2022-09-29T00:43:53;1.00;;;0.70;;
2009;SDS011;1008;47.404;8.502;2022-09-29T00:46:27;0.80;;;0.70;;
2009;SDS011;1008;47.404;8.502;2022-09-29T00:48:59;3.30;;;1.10;;
2009;SDS011;1008;47.404;8.502;2022-09-29T00:51:28;0.80;;;0.70;;
2009;SDS011;1008;47.404;8.502;2022-09-29T00:53:58;0.80;;;0.70;;
2009;SDS011;1008;47.404;8.502;2022-09-29T00:56:25;0.73;;;0.70;;
2009;SDS011;1008;47.404;8.502;2022-09-29T00:58:55;8.13;;;0.93;;
2009;SDS011;1008;47.404;8.502;2022-09-29T01:01:26;0.70;;;0.60;;
2009;SDS011;1008;47.404;8.502;2022-09-29T01:03:56;0.80;;;0.70;;
2009;SDS011;1008;47.404;8.502;2022-09-29T01:06:28;1.20;;;0.80;;
2009;SDS011;1008;47.404;8.502;2022-09-29T01:08:58;0.80;;;0.60;;
2009;SDS011;1008;47.404;8.502;2022-09-29T01:11:27;0.80;;;0.67;;
2009;SDS011;1008;47.404;8.502;2022-09-29T01:13:56;0.90;;;0.70;;
2009;SDS011;1008;47.404;8.502;2022-09-29T01:16:27;0.90;;;0.80;;
2009;SDS011;1008;47.404;8.502;2022-09-29T01:18:55;0.77;;;0.60;;
2009;SDS011;1008;47.404;8.502;2022-09-29T01:21:23;1.00;;;0.90;;
2009;SDS011;1008;47.404;8.502;2022-09-29T01:27:20;1.30;;;0.73;;
2009;SDS011;1008;47.404;8.502;2022-09-29T01:35:51;0.80;;;0.60;;
2009;SDS011;1008;47.404;8.502;2022-09-29T01:38:30;1.00;;;0.90;;
2009;SDS011;1008;47.404;8.502;2022-09-29T01:41:09;0.80;;;0.73;;
2009;SDS011;1008;47.404;8.502;2022-09-29T01:43:39;0.80;;;0.70;;
2009;SDS011;1008;47.404;8.502;2022-09-29T01:46:12;1.00;;;0.83;;
2009;SDS011;1008;47.404;8.502;2022-09-29T01:48:45;1.57;;;1.00;;
2009;SDS011;1008;47.404;8.502;2022-09-29T01:51:16;0.80;;;0.70;;
2009;SDS011;1008;47.404;8.502;2022-09-29T01:53:47;1.00;;;0.90;;
2009;SDS011;1008;47.404;8.502;2022-09-29T01:56:18;1.87;;;0.90;;
2009;SDS011;1008;47.404;8.502;2022-09-29T01:58:50;1.83;;;1.27;;
2009;SDS011;1008;47.404;8.502;2022-09-29T02:01:20;1.27;;;1.03;;
2009;SDS011;1008;47.404;8.502;2022-09-29T02:03:50;2.53;;;1.10;;
2009;SDS011;1008;47.404;8.502;2022-09-29T02:06:22;1.00;;;0.80;;
2009;SDS011;1008;47.404;8.502;2022-09-29T02:08:52;1.40;;;0.83;;
2009;SDS011;1008;47.404;8.502;2022-09-29T02:11:20;1.37;;;0.80;;
2009;SDS011;1008;47.404;8.502;2022-09-29T02:13:49;2.00;;;0.90;;
2009;SDS011;1008;47.404;8.502;2022-09-29T02:16:22;0.80;;;0.70;;
2009;SDS011;1008;47.404;8.502;2022-09-29T02:18:53;1.77;;;0.80;;
2009;SDS011;1008;47.404;8.502;2022-09-29T02:21:23;0.83;;;0.73;;
2009;SDS011;1008;47.404;8.502;2022-09-29T02:23:52;0.80;;;0.80;;
2009;SDS011;1008;47.404;8.502;2022-09-29T02:26:20;0.80;;;0.67;;
2009;SDS011;1008;47.404;8.502;2022-09-29T02:28:47;0.80;;;0.70;;
2009;SDS011;1008;47.404;8.502;2022-09-29T02:31:14;0.97;;;0.87;;
2009;SDS011;1008;47.404;8.502;2022-09-29T02:33:41;0.97;;;0.87;;
2009;SDS011;1008;47.404;8.502;2022-09-29T02:36:14;0.80;;;0.70;;
2009;SDS011;1008;47.404;8.502;2022-09-29T02:38:49;0.90;;;0.70;;
2009;SDS011;1008;47.404;8.502;2022-09-29T02:41:32;1.00;;;0.80;;
2009;SDS011;1008;47.404;8.502;2022-09-29T02:44:12;1.27;;;0.87;;
2009;SDS011;1008;47.404;8.502;2022-09-29T02:46:51;0.80;;;0.70;;
2009;SDS011;1008;47.404;8.502;2022-09-29T02:49:32;1.10;;;1.00;;
2009;SDS011;1008;47.404;8.502;2022-09-29T02:52:17;1.10;;;1.00;;
2009;SDS011;1008;47.404;8.502;2022-09-29T02:54:54;1.00;;;0.90;;
2009;SDS011;1008;47.404;8.502;2022-09-29T02:57:31;2.13;;;0.90;;
2009;SDS011;1008;47.404;8.502;2022-09-29T03:00:10;0.83;;;0.80;;
2009;SDS011;1008;47.404;8.502;2022-09-29T03:02:40;0.80;;;0.80;;
2009;SDS011;1008;47.404;8.502;2022-09-29T03:05:08;2.43;;;0.93;;
2009;SDS011;1008;47.404;8.502;2022-09-29T03:07:39;1.10;;;0.90;;
2009;SDS011;1008;47.404;8.502;2022-09-29T03:10:07;1.57;;;0.97;;
2009;SDS011;1008;47.404;8.502;2022-09-29T03:12:35;1.50;;;0.90;;
2009;SDS011;1008;47.404;8.502;2022-09-29T03:15:02;0.93;;;0.83;;
2009;SDS011;1008;47.404;8.502;2022-09-29T03:17:30;1.67;;;1.10;;
2009;SDS011;1008;47.404;8.502;2022-09-29T03:19:57;1.10;;;1.00;;
2009;SDS011;1008;47.404;8.502;2022-09-29T03:22:24;1.10;;;1.00;;
2009;SDS011;1008;47.404;8.502;2022-09-29T03:24:52;1.37;;;1.10;;
2009;SDS011;1008;47.404;8.502;2022-09-29T03:27:19;1.37;;;1.10;;
2009;SDS011;1008;47.404;8.502;2022-09-29T03:29:46;1.40;;;1.20;;
2009;SDS011;1008;47.404;8.502;2022-09-29T03:32:14;1.30;;;0.83;;
2009;SDS011;1008;47.404;8.502;2022-09-29T03:34:41;1.30;;;1.10;;
2009;SDS011;1008;47.404;8.502;2022-09-29T03:37:08;1.27;;;1.07;;
2009;SDS011;1008;47.404;8.502;2022-09-29T03:39:34;1.43;;;1.03;;
2009;SDS011;1008;47.404;8.502;2022-09-29T03:42:03;2.77;;;1.30;;
2009;SDS011;1008;47.404;8.502;2022-09-29T03:44:30;2.03;;;1.40;;
2009;SDS011;1008;47.404;8.502;2022-09-29T03:46:56;1.80;;;1.50;;
2009;SDS011;1008;47.404;8.502;2022-09-29T03:49:23;1.50;;;1.10;;
2009;SDS011;1008;47.404;8.502;2022-09-29T03:51:50;1.27;;;1.17;;
2009;SDS011;1008;47.404;8.502;2022-09-29T03:54:17;3.17;;;1.80;;
2009;SDS011;1008;47.404;8.502;2022-09-29T03:56:44;2.13;;;1.83;;
2009;SDS011;1008;47.404;8.502;2022-09-29T03:59:12;2.23;;;1.40;;
2009;SDS011;1008;47.404;8.502;2022-09-29T04:01:39;2.30;;;1.60;;
2009;SDS011;1008;47.404;8.502;2022-09-29T04:04:07;2.70;;;1.97;;
2009;SDS011;1008;47.404;8.502;2022-09-29T04:06:34;2.20;;;1.73;;
2009;SDS011;1008;47.404;8.502;2022-09-29T04:09:01;3.37;;;1.97;;
2009;SDS011;1008;47.404;8.502;2022-09-29T04:11:28;3.00;;;2.00;;
2009;SDS011;1008;47.404;8.502;2022-09-29T04:13:55;2.87;;;2.20;;
2009;SDS011;1008;47.404;8.502;2022-09-29T04:16:23;2.33;;;1.87;;
2009;SDS011;1008;47.404;8.502;2022-09-29T04:18:50;2.97;;;2.43;;
2009;SDS011;1008;47.404;8.502;2022-09-29T04:21:17;2.80;;;1.90;;
2009;SDS011;1008;47.404;8.502;2022-09-29T04:23:44;3.70;;;2.83;;
2009;SDS011;1008;47.404;8.502;2022-09-29T04:26:11;2.83;;;2.33;;
2009;SDS011;1008;47.404;8.502;2022-09-29T04:28:39;3.63;;;2.40;;
2009;SDS011;1008;47.404;8.502;2022-09-29T04:31:06;4.77;;;2.70;;
2009;SDS011;1008;47.404;8.502;2022-09-29T04:33:34;3.00;;;2.50;;
2009;SDS011;1008;47.404;8.502;2022-09-29T04:36:03;3.07;;;2.40;;
2009;SDS011;1008;47.404;8.502;2022-09-29T04:38:31;4.30;;;2.90;;
2009;SDS011;1008;47.404;8.502;2022-09-29T04:40:58;4.30;;;2.67;;
2009;SDS011;1008;47.404;8.502;2022-09-29T04:43:25;3.67;;;3.03;;
2009;SDS011;1008;47.404;8.502;2022-09-29T04:45:51;3.50;;;2.70;;
2009;SDS011;1008;47.404;8.502;2022-09-29T04:48:18;4.37;;;2.90;;
2009;SDS011;1008;47.404;8.502;2022-09-29T04:50:46;3.43;;;2.33;;
2009;SDS011;1008;47.404;8.502;2022-09-29T04:53:15;2.37;;;1.57;;
2009;SDS011;1008;47.404;8.502;2022-09-29T04:55:42;2.60;;;1.90;;
2009;SDS011;1008;47.404;8.502;2022-09-29T04:58:09;3.07;;;2.07;;
2009;SDS011;1008;47.404;8.502;2022-09-29T05:00:35;1.97;;;1.43;;
2009;SDS011;1008;47.404;8.502;2022-09-29T05:03:02;2.70;;;1.67;;
2009;SDS011;1008;47.404;8.502;2022-09-29T05:05:29;1.93;;;1.63;;
2009;SDS011;1008;47.404;8.502;2022-09-29T05:07:57;1.60;;;1.33;;
2009;SDS011;1008;47.404;8.502;2022-09-29T05:10:24;2.87;;;1.50;;
2009;SDS011;1008;47.404;8.502;2022-09-29T05:12:51;1.90;;;1.37;;
2009;SDS011;1008;47.404;8.502;2022-09-29T05:15:18;2.00;;;1.80;;
2009;SDS011;1008;47.404;8.502;2022-09-29T05:17:45;3.50;;;1.90;;
2009;SDS011;1008;47.404;8.502;2022-09-29T05:20:12;1.87;;;1.60;;
2009;SDS011;1008;47.404;8.502;2022-09-29T05:22:39;4.27;;;2.27;;
2009;SDS011;1008;47.404;8.502;2022-09-29T05:25:08;2.77;;;1.80;;
2009;SDS011;1008;47.404;8.502;2022-09-29T05:27:35;4.60;;;2.57;;
2009;SDS011;1008;47.404;8.502;2022-09-29T05:30:03;3.00;;;2.33;;
2009;SDS011;1008;47.404;8.502;2022-09-29T05:32:30;5.17;;;3.00;;
2009;SDS011;1008;47.404;8.502;2022-09-29T05:34:57;4.00;;;2.53;;
2009;SDS011;1008;47.404;8.502;2022-09-29T05:37:24;3.20;;;2.47;;
2009;SDS011;1008;47.404;8.502;2022-09-29T05:39:51;4.70;;;2.67;;
2009;SDS011;1008;47.404;8.502;2022-09-29T05:42:19;4.30;;;2.43;;
2009;SDS011;1008;47.404;8.502;2022-09-29T05:44:48;4.77;;;2.80;;
2009;SDS011;1008;47.404;8.502;2022-09-29T05:47:15;3.60;;;2.70;;
2009;SDS011;1008;47.404;8.502;2022-09-29T05:49:41;4.90;;;2.33;;
2009;SDS011;1008;47.404;8.502;2022-09-29T05:52:08;3.93;;;2.20;;
2009;SDS011;1008;47.404;8.502;2022-09-29T05:54:35;3.20;;;2.20;;
2009;SDS011;1008;47.404;8.502;2022-09-29T05:57:02;4.37;;;2.40;;
2009;SDS011;1008;47.404;8.502;2022-09-29T05:59:30;3.00;;;2.10;;
2009;SDS011;1008;47.404;8.502;2022-09-29T06:01:56;2.40;;;2.00;;
2009;SDS011;1008;47.404;8.502;2022-09-29T06:04:23;2.27;;;1.80;;
2009;SDS011;1008;47.404;8.502;2022-09-29T06:06:50;1.83;;;1.60;;
2009;SDS011;1008;47.404;8.502;2022-09-29T06:09:17;2.30;;;1.50;;
2009;SDS011;1008;47.404;8.502;2022-09-29T06:11:44;1.57;;;1.47;;
2009;SDS011;1008;47.404;8.502;2022-09-29T06:14:10;1.50;;;1.40;;
2009;SDS011;1008;47.404;8.502;2022-09-29T06:16:39;3.10;;;1.97;;
2009;SDS011;1008;47.404;8.502;2022-09-29T06:19:05;2.00;;;1.40;;
2009;SDS011;1008;47.404;8.502;2022-09-29T06:21:32;1.67;;;1.33;;
2009;SDS011;1008;47.404;8.502;2022-09-29T06:24:02;2.73;;;1.40;;
2009;SDS011;1008;47.404;8.502;2022-09-29T06:26:31;1.60;;;1.30;;
2009;SDS011;1008;47.404;8.502;2022-09-29T06:28:58;1.90;;;1.67;;
2009;SDS011;1008;47.404;8.502;2022-09-29T06:31:26;2.13;;;1.60;;
2009;SDS011;1008;47.404;8.502;2022-09-29T06:33:56;1.80;;;1.40;;
2009;SDS011;1008;47.404;8.502;2022-09-29T06:36:24;1.63;;;1.43;;
2009;SDS011;1008;47.404;8.502;2022-09-29T06:39:11;5.33;;;2.17;;
2009;SDS011;1008;47.404;8.502;2022-09-29T06:41:40;2.73;;;2.43;;
2009;SDS011;1008;47.404;8.502;2022-09-29T06:44:08;3.93;;;2.70;;
2009;SDS011;1008;47.404;8.502;2022-09-29T06:46:35;5.50;;;3.40;;
2009;SDS011;1008;47.404;8.502;2022-09-29T06:49:03;5.20;;;3.63;;
2009;SDS011;1008;47.404;8.502;2022-09-29T06:51:30;6.33;;;3.03;;
2009;SDS011;1008;47.404;8.502;2022-09-29T06:53:57;11.70;;;4.50;;
2009;SDS011;1008;47.404;8.502;2022-09-29T06:56:24;4.40;;;2.70;;
2009;SDS011;1008;47.404;8.502;2022-09-29T06:58:51;6.57;;;3.07;;
2009;SDS011;1008;47.404;8.502;2022-09-29T07:01:17;4.60;;;2.77;;
2009;SDS011;1008;47.404;8.502;2022-09-29T07:03:44;3.40;;;2.43;;
2009;SDS011;1008;47.404;8.502;2022-09-29T07:06:12;2.37;;;1.80;;
2009;SDS011;1008;47.404;8.502;2022-09-29T07:08:39;2.50;;;1.90;;
2009;SDS011;1008;47.404;8.502;2022-09-29T07:11:06;2.03;;;1.73;;
2009;SDS011;1008;47.404;8.502;2022-09-29T07:13:34;2.10;;;1.50;;
2009;SDS011;1008;47.404;8.502;2022-09-29T07:16:02;1.73;;;1.60;;
2009;SDS011;1008;47.404;8.502;2022-09-29T07:18:32;1.30;;;1.20;;
2009;SDS011;1008;47.404;8.502;2022-09-29T07:20:59;2.50;;;1.73;;
2009;SDS011;1008;47.404;8.502;2022-09-29T07:23:28;1.70;;;1.60;;
2009;SDS011;1008;47.404;8.502;2022-09-29T07:25:54;4.33;;;1.67;;
2009;SDS011;1008;47.404;8.502;2022-09-29T07:28:21;2.70;;;1.63;;
2009;SDS011;1008;47.404;8.502;2022-09-29T07:30:57;2.13;;;1.73;;
2009;SDS011;1008;47.404;8.502;2022-09-29T07:33:24;1.70;;;1.60;;
2009;SDS011;1008;47.404;8.502;2022-09-29T07:35:51;1.60;;;1.43;;
2009;SDS011;1008;47.404;8.502;2022-09-29T07:38:18;1.77;;;1.60;;
2009;SDS011;1008;47.404;8.502;2022-09-29T07:40:46;1.60;;;1.50;;
2009;SDS011;1008;47.404;8.502;2022-09-29T07:43:13;2.23;;;1.70;;
2009;SDS011;1008;47.404;8.502;2022-09-29T07:45:44;2.90;;;2.33;;
2009;SDS011;1008;47.404;8.502;2022-09-29T07:48:11;2.00;;;1.70;;
2009;SDS011;1008;47.404;8.502;2022-09-29T07:50:38;1.93;;;1.80;;
2009;SDS011;1008;47.404;8.502;2022-09-29T07:53:05;3.37;;;2.33;;
2009;SDS011;1008;47.404;8.502;2022-09-29T07:55:31;1.97;;;1.70;;
2009;SDS011;1008;47.404;8.502;2022-09-29T07:58:01;2.60;;;2.13;;
2009;SDS011;1008;47.404;8.502;2022-09-29T08:00:28;2.33;;;2.13;;
2009;SDS011;1008;47.404;8.502;2022-09-29T08:02:58;2.73;;;2.40;;
2009;SDS011;1008;47.404;8.502;2022-09-29T08:05:26;3.13;;;2.27;;
2009;SDS011;1008;47.404;8.502;2022-09-29T08:07:53;3.00;;;2.23;;
2009;SDS011;1008;47.404;8.502;2022-09-29T08:10:20;3.40;;;2.80;;
2009;SDS011;1008;47.404;8.502;2022-09-29T08:12:47;3.50;;;3.20;;
2009;SDS011;1008;47.404;8.502;2022-09-29T08:15:15;4.60;;;3.53;;
2009;SDS011;1008;47.404;8.502;2022-09-29T08:17:42;3.30;;;2.90;;
2009;SDS011;1008;47.404;8.502;2022-09-29T08:20:08;5.10;;;2.93;;
2009;SDS011;1008;47.404;8.502;2022-09-29T08:22:35;4.40;;;2.73;;
2009;SDS011;1008;47.404;8.502;2022-09-29T08:25:02;3.90;;;3.07;;
2009;SDS011;1008;47.404;8.502;2022-09-29T08:27:30;2.63;;;2.40;;
2009;SDS011;1008;47.404;8.502;2022-09-29T08:29:58;3.93;;;3.00;;
2009;SDS011;1008;47.404;8.502;2022-09-29T08:32:26;8.60;;;2.77;;
2009;SDS011;1008;47.404;8.502;2022-09-29T08:34:53;2.00;;;1.90;;
2009;SDS011;1008;47.404;8.502;2022-09-29T08:37:20;1.90;;;1.80;;
2009;SDS011;1008;47.404;8.502;2022-09-29T08:39:47;3.70;;;2.50;;
2009;SDS011;1008;47.404;8.502;2022-09-29T08:42:15;3.80;;;2.83;;
2009;SDS011;1008;47.404;8.502;2022-09-29T08:44:50;2.83;;;2.00;;
2009;SDS011;1008;47.404;8.502;2022-09-29T08:47:24;3.23;;;2.30;;
2009;SDS011;1008;47.404;8.502;2022-09-29T08:49:55;2.70;;;2.20;;
2009;SDS011;1008;47.404;8.502;2022-09-29T08:52:25;5.80;;;2.30;;
2009;SDS011;1008;47.404;8.502;2022-09-29T08:54:55;3.23;;;2.50;;
2009;SDS011;1008;47.404;8.502;2022-09-29T08:57:27;3.20;;;2.47;;
2009;SDS011;1008;47.404;8.502;2022-09-29T08:59:55;2.27;;;1.43;;
2009;SDS011;1008;47.404;8.502;2022-09-29T09:08:10;1.90;;;1.50;;
2009;SDS011;1008;47.404;8.502;2022-09-29T09:10:43;2.03;;;1.27;;
2009;SDS011;1008;47.404;8.502;2022-09-29T09:13:17;1.57;;;1.47;;
2009;SDS011;1008;47.404;8.502;2022-09-29T09:16:03;3.13;;;1.90;;
2009;SDS011;1008;47.404;8.502;2022-09-29T09:18:43;3.03;;;2.50;;
2009;SDS011;1008;47.404;8.502;2022-09-29T09:21:36;1.83;;;1.40;;
2009;SDS011;1008;47.404;8.502;2022-09-29T09:24:09;1.57;;;1.47;;
2009;SDS011;1008;47.404;8.502;2022-09-29T09:26:41;1.50;;;1.40;;
2009;SDS011;1008;47.404;8.502;2022-09-29T09:29:10;1.50;;;1.17;;
2009;SDS011;1008;47.404;8.502;2022-09-29T09:31:42;1.20;;;1.10;;
2009;SDS011;1008;47.404;8.502;2022-09-29T09:34:17;1.70;;;1.07;;
2009;SDS011;1008;47.404;8.502;2022-09-29T09:36:49;3.03;;;1.50;;
2009;SDS011;1008;47.404;8.502;2022-09-29T09:39:21;1.93;;;1.30;;
2009;SDS011;1008;47.404;8.502;2022-09-29T09:41:52;1.33;;;1.23;;
2009;SDS011;1008;47.404;8.502;2022-09-29T09:44:21;3.33;;;2.23;;
2009;SDS011;1008;47.404;8.502;2022-09-29T09:46:52;1.63;;;1.40;;
2009;SDS011;1008;47.404;8.502;2022-09-29T09:49:25;1.70;;;1.57;;
2009;SDS011;1008;47.404;8.502;2022-09-29T09:51:57;2.33;;;1.80;;
2009;SDS011;1008;47.404;8.502;2022-09-29T09:54:28;1.73;;;1.50;;
2009;SDS011;1008;47.404;8.502;2022-09-29T09:57:02;1.47;;;1.23;;
2009;SDS011;1008;47.404;8.502;2022-09-29T09:59:54;1.47;;;1.03;;
2009;SDS011;1008;47.404;8.502;2022-09-29T10:02:33;2.03;;;1.70;;
2009;SDS011;1008;47.404;8.502;2022-09-29T10:05:11;1.53;;;1.30;;
2009;SDS011;1008;47.404;8.502;2022-09-29T10:07:38;1.73;;;1.33;;
2009;SDS011;1008;47.404;8.502;2022-09-29T10:10:12;1.50;;;1.40;;
2009;SDS011;1008;47.404;8.502;2022-09-29T10:12:41;1.63;;;1.50;;
2009;SDS011;1008;47.404;8.502;2022-09-29T10:15:11;3.73;;;1.57;;
2009;SDS011;1008;47.404;8.502;2022-09-29T10:17:44;1.37;;;1.27;;
2009;SDS011;1008;47.404;8.502;2022-09-29T10:20:18;1.50;;;1.40;;
2009;SDS011;1008;47.404;8.502;2022-09-29T10:23:02;1.73;;;1.30;;
2009;SDS011;1008;47.404;8.502;2022-09-29T10:25:50;1.90;;;1.60;;
2009;SDS011;1008;47.404;8.502;2022-09-29T10:28:19;1.60;;;1.50;;
2009;SDS011;1008;47.404;8.502;2022-09-29T10:30:46;2.60;;;1.90;;
2009;SDS011;1008;47.404;8.502;2022-09-29T10:33:14;2.77;;;1.67;;
2009;SDS011;1008;47.404;8.502;2022-09-29T10:35:45;2.00;;;1.87;;
2009;SDS011;1008;47.404;8.502;2022-09-29T10:38:16;1.80;;;1.70;;
2009;SDS011;1008;47.404;8.502;2022-09-29T10:40:52;1.47;;;1.27;;
2009;SDS011;1008;47.404;8.502;2022-09-29T10:43:22;2.00;;;1.73;;
2009;SDS011;1008;47.404;8.502;2022-09-29T10:45:51;1.87;;;1.60;;
2009;SDS011;1008;47.404;8.502;2022-09-29T10:48:22;1.30;;;1.17;;
2009;SDS011;1008;47.404;8.502;2022-09-29T10:50:51;1.60;;;1.43;;
2009;SDS011;1008;47.404;8.502;2022-09-29T10:53:23;1.93;;;1.40;;
2009;SDS011;1008;47.404;8.502;2022-09-29T10:55:58;1.63;;;1.40;;
2009;SDS011;1008;47.404;8.502;2022-09-29T10:58:27;1.33;;;1.10;;
2009;SDS011;1008;47.404;8.502;2022-09-29T11:01:03;1.10;;;1.00;;
2009;SDS011;1008;47.404;8.502;2022-09-29T11:03:32;2.00;;;1.40;;
2009;SDS011;1008;47.404;8.502;2022-09-29T11:06:04;2.00;;;1.60;;
2009;SDS011;1008;47.404;8.502;2022-09-29T11:08:32;1.53;;;1.10;;
2009;SDS011;1008;47.404;8.502;2022-09-29T11:11:26;1.47;;;1.20;;
2009;SDS011;1008;47.404;8.502;2022-09-29T11:13:55;2.47;;;1.13;;
2009;SDS011;1008;47.404;8.502;2022-09-29T11:16:25;1.67;;;1.37;;
2009;SDS011;1008;47.404;8.502;2022-09-29T11:18:54;1.50;;;1.30;;
2009;SDS011;1008;47.404;8.502;2022-09-29T11:21:34;1.70;;;1.30;;
2009;SDS011;1008;47.404;8.502;2022-09-29T11:24:37;1.77;;;1.50;;
2009;SDS011;1008;47.404;8.502;2022-09-29T11:27:21;2.07;;;1.70;;
2009;SDS011;1008;47.404;8.502;2022-09-29T11:29:57;2.40;;;1.50;;
2009;SDS011;1008;47.404;8.502;2022-09-29T11:32:33;2.40;;;1.47;;
2009;SDS011;1008;47.404;8.502;2022-09-29T11:35:17;2.20;;;1.40;;
2009;SDS011;1008;47.404;8.502;2022-09-29T11:38:01;1.83;;;1.50;;
2009;SDS011;1008;47.404;8.502;2022-09-29T11:40:46;1.87;;;1.50;;
2009;SDS011;1008;47.404;8.502;2022-09-29T11:43:25;1.90;;;1.27;;
2009;SDS011;1008;47.404;8.502;2022-09-29T11:46:03;2.70;;;1.60;;
2009;SDS011;1008;47.404;8.502;2022-09-29T11:48:50;2.80;;;1.67;;
2009;SDS011;1008;47.404;8.502;2022-09-29T11:51:37;1.40;;;1.30;;
2009;SDS011;1008;47.404;8.502;2022-09-29T11:54:21;1.70;;;1.30;;
2009;SDS011;1008;47.404;8.502;2022-09-29T11:57:09;1.30;;;1.20;;
2009;SDS011;1008;47.404;8.502;2022-09-29T11:59:43;1.33;;;1.23;;
2009;SDS011;1008;47.404;8.502;2022-09-29T12:02:44;1.27;;;1.10;;
2009;SDS011;1008;47.404;8.502;2022-09-29T12:05:23;1.20;;;1.10;;
2009;SDS011;1008;47.404;8.502;2022-09-29T12:07:57;1.40;;;1.30;;
2009;SDS011;1008;47.404;8.502;2022-09-29T12:10:37;1.60;;;1.40;;
2009;SDS011;1008;47.404;8.502;2022-09-29T12:13:12;1.37;;;1.27;;
2009;SDS011;1008;47.404;8.502;2022-09-29T12:15:49;4.30;;;1.73;;
2009;SDS011;1008;47.404;8.502;2022-09-29T12:18:21;2.30;;;1.80;;
2009;SDS011;1008;47.404;8.502;2022-09-29T12:20:53;1.60;;;1.00;;
2009;SDS011;1008;47.404;8.502;2022-09-29T12:23:22;1.97;;;1.50;;
2009;SDS011;1008;47.404;8.502;2022-09-29T12:25:54;1.93;;;1.60;;
2009;SDS011;1008;47.404;8.502;2022-09-29T12:28:26;1.83;;;1.47;;
2009;SDS011;1008;47.404;8.502;2022-09-29T12:30:58;1.70;;;1.47;;
2009;SDS011;1008;47.404;8.502;2022-09-29T12:33:29;1.67;;;1.50;;
2009;SDS011;1008;47.404;8.502;2022-09-29T12:36:03;1.70;;;1.50;;
2009;SDS011;1008;47.404;8.502;2022-09-29T12:39:04;1.70;;;1.60;;
2009;SDS011;1008;47.404;8.502;2022-09-29T12:41:40;2.27;;;1.97;;
2009;SDS011;1008;47.404;8.502;2022-09-29T12:44:14;2.03;;;1.60;;
2009;SDS011;1008;47.404;8.502;2022-09-29T12:46:48;1.40;;;1.30;;
2009;SDS011;1008;47.404;8.502;2022-09-29T12:49:22;1.10;;;1.00;;
2009;SDS011;1008;47.404;8.502;2022-09-29T12:51:58;1.10;;;1.00;;
2009;SDS011;1008;47.404;8.502;2022-09-29T12:54:29;1.13;;;1.00;;
2009;SDS011;1008;47.404;8.502;2022-09-29T12:57:01;2.33;;;1.40;;
2009;SDS011;1008;47.404;8.502;2022-09-29T12:59:31;1.77;;;1.17;;
2009;SDS011;1008;47.404;8.502;2022-09-29T13:02:04;1.20;;;1.00;;
2009;SDS011;1008;47.404;8.502;2022-09-29T13:04:52;3.50;;;1.50;;
2009;SDS011;1008;47.404;8.502;2022-09-29T13:10:27;1.10;;;1.00;;
2009;SDS011;1008;47.404;8.502;2022-09-29T13:13:20;1.70;;;1.60;;
2009;SDS011;1008;47.404;8.502;2022-09-29T13:16:04;2.27;;;1.20;;
2009;SDS011;1008;47.404;8.502;2022-09-29T13:18:42;1.97;;;1.27;;
2009;SDS011;1008;47.404;8.502;2022-09-29T13:21:22;1.10;;;1.00;;
2009;SDS011;1008;47.404;8.502;2022-09-29T13:24:08;1.40;;;1.20;;
2009;SDS011;1008;47.404;8.502;2022-09-29T13:26:49;1.60;;;1.40;;
2009;SDS011;1008;47.404;8.502;2022-09-29T13:29:39;1.70;;;1.60;;
2009;SDS011;1008;47.404;8.502;2022-09-29T13:32:12;1.73;;;1.50;;
2009;SDS011;1008;47.404;8.502;2022-09-29T13:34:42;1.30;;;1.20;;
2009;SDS011;1008;47.404;8.502;2022-09-29T13:37:14;1.63;;;1.03;;
2009;SDS011;1008;47.404;8.502;2022-09-29T13:39:43;1.20;;;1.10;;
2009;SDS011;1008;47.404;8.502;2022-09-29T13:42:38;2.17;;;1.37;;
2009;SDS011;1008;47.404;8.502;2022-09-29T13:45:15;2.83;;;1.30;;
2009;SDS011;1008;47.404;8.502;2022-09-29T13:51:22;2.97;;;1.23;;
2009;SDS011;1008;47.404;8.502;2022-09-29T14:00:03;1.43;;;1.00;;
2009;SDS011;1008;47.404;8.502;2022-09-29T14:03:00;1.20;;;1.10;;
2009;SDS011;1008;47.404;8.502;2022-09-29T14:05:43;1.77;;;1.00;;
2009;SDS011;1008;47.404;8.502;2022-09-29T14:08:18;1.40;;;1.30;;
2009;SDS011;1008;47.404;8.502;2022-09-29T14:10:51;3.00;;;1.40;;
2009;SDS011;1008;47.404;8.502;2022-09-29T14:13:25;1.40;;;1.10;;
2009;SDS011;1008;47.404;8.502;2022-09-29T14:16:03;1.50;;;1.40;;
2009;SDS011;1008;47.404;8.502;2022-09-29T14:18:43;1.57;;;1.10;;
2009;SDS011;1008;47.404;8.502;2022-09-29T14:21:43;4.70;;;2.30;;
2009;SDS011;1008;47.404;8.502;2022-09-29T14:27:24;2.77;;;1.50;;
2009;SDS011;1008;47.404;8.502;2022-09-29T14:29:55;1.53;;;1.10;;
2009;SDS011;1008;47.404;8.502;2022-09-29T14:32:32;1.63;;;1.27;;
2009;SDS011;1008;47.404;8.502;2022-09-29T14:35:12;1.30;;;1.00;;
2009;SDS011;1008;47.404;8.502;2022-09-29T14:37:43;1.33;;;1.23;;
2009;SDS011;1008;47.404;8.502;2022-09-29T14:40:12;2.07;;;1.10;;
2009;SDS011;1008;47.404;8.502;2022-09-29T14:43:01;1.17;;;1.07;;
2009;SDS011;1008;47.404;8.502;2022-09-29T14:45:29;1.30;;;1.07;;
2009;SDS011;1008;47.404;8.502;2022-09-29T14:48:20;1.73;;;1.30;;
2009;SDS011;1008;47.404;8.502;2022-09-29T14:51:17;1.47;;;1.37;;
2009;SDS011;1008;47.404;8.502;2022-09-29T14:54:22;1.93;;;1.50;;
2009;SDS011;1008;47.404;8.502;2022-09-29T14:57:03;1.50;;;1.40;;
2009;SDS011;1008;47.404;8.502;2022-09-29T14:59:39;1.60;;;1.27;;
2009;SDS011;1008;47.404;8.502;2022-09-29T15:02:21;3.73;;;1.80;;
2009;SDS011;1008;47.404;8.502;2022-09-29T15:04:51;1.77;;;1.40;;
2009;SDS011;1008;47.404;8.502;2022-09-29T15:07:20;1.50;;;1.40;;
2009;SDS011;1008;47.404;8.502;2022-09-29T15:09:49;7.03;;;1.33;;
2009;SDS011;1008;47.404;8.502;2022-09-29T15:12:22;1.20;;;1.10;;
2009;SDS011;1008;47.404;8.502;2022-09-29T15:14:51;1.17;;;1.07;;
2009;SDS011;1008;47.404;8.502;2022-09-29T15:17:26;1.77;;;1.53;;
2009;SDS011;1008;47.404;8.502;2022-09-29T15:20:08;1.40;;;1.30;;
2009;SDS011;1008;47.404;8.502;2022-09-29T15:25:34;2.33;;;1.40;;
2009;SDS011;1008;47.404;8.502;2022-09-29T15:28:05;1.83;;;1.70;;
2009;SDS011;1008;47.404;8.502;2022-09-29T15:30:38;3.20;;;1.60;;
2009;SDS011;1008;47.404;8.502;2022-09-29T15:33:08;1.40;;;1.30;;
2009;SDS011;1008;47.404;8.502;2022-09-29T15:35:44;1.80;;;1.40;;
2009;SDS011;1008;47.404;8.502;2022-09-29T15:38:19;2.03;;;1.60;;
2009;SDS011;1008;47.404;8.502;2022-09-29T15:41:00;1.80;;;1.20;;
2009;SDS011;1008;47.404;8.502;2022-09-29T15:43:29;1.63;;;1.40;;
2009;SDS011;1008;47.404;8.502;2022-09-29T15:46:12;1.67;;;1.30;;
2009;SDS011;1008;47.404;8.502;2022-09-29T15:48:42;1.30;;;1.03;;
2009;SDS011;1008;47.404;8.502;2022-09-29T15:51:53;4.10;;;1.23;;
2009;SDS011;1008;47.404;8.502;2022-09-29T15:54:24;2.37;;;1.90;;
2009;SDS011;1008;47.404;8.502;2022-09-29T15:56:53;2.43;;;2.03;;
2009;SDS011;1008;47.404;8.502;2022-09-29T15:59:38;2.00;;;1.70;;
2009;SDS011;1008;47.404;8.502;2022-09-29T16:02:10;3.27;;;1.60;;
2009;SDS011;1008;47.404;8.502;2022-09-29T16:04:45;1.67;;;1.33;;
2009;SDS011;1008;47.404;8.502;2022-09-29T16:07:15;2.43;;;1.90;;
2009;SDS011;1008;47.404;8.502;2022-09-29T16:09:48;2.00;;;1.63;;
2009;SDS011;1008;47.404;8.502;2022-09-29T16:12:16;2.47;;;1.60;;
2009;SDS011;1008;47.404;8.502;2022-09-29T16:14:45;1.77;;;1.53;;
2009;SDS011;1008;47.404;8.502;2022-09-29T16:17:13;2.10;;;1.40;;
2009;SDS011;1008;47.404;8.502;2022-09-29T16:19:40;5.23;;;3.67;;